createdAt,value
2022-10-23T00:02:24.748Z,33.80
2022-10-23T00:05:30.585Z,34.70
2022-10-23T00:08:37.906Z,34.90
2022-10-23T00:11:45.376Z,33.70
2022-10-23T00:14:49.161Z,35.47
2022-10-23T00:18:00.922Z,34.67
2022-10-23T00:21:07.103Z,36.33
2022-10-23T00:24:11.095Z,33.27
2022-10-23T00:27:17.706Z,32.30
2022-10-23T00:30:21.567Z,37.97
2022-10-23T00:33:28.997Z,38.00
2022-10-23T00:36:32.815Z,37.27
2022-10-23T00:39:36.572Z,38.10
2022-10-23T00:42:41.588Z,33.53
2022-10-23T00:45:45.623Z,37.40
2022-10-23T00:49:00.951Z,38.20
2022-10-23T00:52:08.363Z,35.07
2022-10-23T00:55:16.113Z,40.23
2022-10-23T00:58:21.617Z,33.40
2022-10-23T01:01:31.634Z,29.27
2022-10-23T01:04:40.585Z,34.37
2022-10-23T01:07:51.795Z,28.93
2022-10-23T01:11:05.017Z,31.17
2022-10-23T01:14:21.841Z,29.40
2022-10-23T01:17:30.313Z,32.00
2022-10-23T01:20:43.873Z,28.13
2022-10-23T01:24:11.092Z,27.97
2022-10-23T01:27:28.651Z,26.57
2022-10-23T01:30:34.081Z,24.90
2022-10-23T01:33:42.316Z,30.20
2022-10-23T01:36:52.222Z,29.30
2022-10-23T01:40:02.477Z,27.90
2022-10-23T01:43:14.541Z,27.50
2022-10-23T01:46:19.223Z,24.80
2022-10-23T01:49:25.473Z,27.87
2022-10-23T01:52:32.986Z,28.07
2022-10-23T01:58:59.421Z,35.07
2022-10-23T02:02:08.300Z,34.13
2022-10-23T02:05:16.325Z,32.43
2022-10-23T02:08:20.003Z,27.53
2022-10-23T02:11:23.989Z,28.13
2022-10-23T02:14:40.202Z,25.80
2022-10-23T02:17:51.149Z,22.70
2022-10-23T02:20:57.716Z,25.80
2022-10-23T02:24:06.883Z,23.93
2022-10-23T02:27:18.732Z,28.30
2022-10-23T02:30:31.437Z,27.90
2022-10-23T02:33:46.161Z,25.70
2022-10-23T02:36:50.635Z,27.90
2022-10-23T02:39:56.765Z,25.57
2022-10-23T02:43:03.690Z,22.90
2022-10-23T02:46:19.157Z,26.73
2022-10-23T02:49:30.795Z,26.30
2022-10-23T02:52:42.811Z,25.83
2022-10-23T02:56:01.344Z,24.43
2022-10-23T02:59:12.373Z,29.93
2022-10-23T03:02:25.547Z,31.90
2022-10-23T03:05:33.910Z,29.20
2022-10-23T03:08:45.652Z,27.27
2022-10-23T03:11:49.257Z,28.63
2022-10-23T03:14:52.997Z,29.70
2022-10-23T03:18:00.386Z,25.53
2022-10-23T03:21:03.970Z,29.30
2022-10-23T03:24:10.706Z,24.30
2022-10-23T03:27:19.035Z,24.87
2022-10-23T03:30:22.645Z,25.10
2022-10-23T03:33:35.946Z,26.80
2022-10-23T03:36:48.291Z,26.90
2022-10-23T03:39:52.342Z,24.67
2022-10-23T03:42:55.981Z,23.33
2022-10-23T03:46:01.034Z,21.33
2022-10-23T03:49:06.384Z,26.67
2022-10-23T03:52:10.227Z,22.10
2022-10-23T03:55:14.304Z,19.90
2022-10-23T03:58:17.952Z,19.40
2022-10-23T04:01:22.419Z,24.33
2022-10-23T04:04:27.936Z,21.97
2022-10-23T04:07:31.519Z,20.30
2022-10-23T04:10:38.680Z,20.40
2022-10-23T04:13:42.117Z,21.73
2022-10-23T04:16:45.812Z,22.27
2022-10-23T04:19:50.952Z,21.33
2022-10-23T04:22:54.513Z,21.67
2022-10-23T04:25:58.883Z,30.73
2022-10-23T04:29:03.343Z,19.90
2022-10-23T04:32:08.716Z,19.47
2022-10-23T04:35:13.994Z,22.30
2022-10-23T04:38:17.805Z,23.87
2022-10-23T04:41:21.585Z,19.77
2022-10-23T04:44:25.297Z,18.43
2022-10-23T04:47:29.092Z,18.37
2022-10-23T04:50:36.685Z,18.73
2022-10-23T04:54:03.186Z,19.63
2022-10-23T04:57:33.213Z,21.40
2022-10-23T05:00:40.231Z,13.43
2022-10-23T05:03:45.502Z,16.07
2022-10-23T05:06:51.666Z,17.73
2022-10-23T05:10:09.099Z,20.30
2022-10-23T05:13:31.676Z,15.27
2022-10-23T05:16:39.385Z,15.20
2022-10-23T05:19:45.873Z,17.73
2022-10-23T05:22:53.362Z,16.90
2022-10-23T05:26:03.451Z,14.43
2022-10-23T05:29:08.741Z,12.37
2022-10-23T05:32:15.975Z,16.97
2022-10-23T05:35:23.882Z,12.60
2022-10-23T05:38:34.256Z,14.13
2022-10-23T05:41:42.566Z,17.43
2022-10-23T05:44:46.242Z,15.07
2022-10-23T05:48:29.972Z,14.60
2022-10-23T05:51:49.824Z,16.07
2022-10-23T05:54:57.676Z,14.80
2022-10-23T05:58:40.346Z,15.50
2022-10-23T06:01:54.319Z,11.73
2022-10-23T06:05:18.566Z,11.70
2022-10-23T06:08:48.512Z,12.23
2022-10-23T06:11:54.584Z,12.47
2022-10-23T06:14:59.582Z,13.20
2022-10-23T06:18:23.465Z,9.70
2022-10-23T06:21:39.515Z,19.60
2022-10-23T06:24:43.894Z,14.83
2022-10-23T06:27:52.925Z,20.40
2022-10-23T06:30:56.783Z,13.97
2022-10-23T06:34:01.535Z,13.60
2022-10-23T06:37:07.716Z,11.70
2022-10-23T06:40:31.757Z,14.67
2022-10-23T06:43:40.286Z,13.73
2022-10-23T06:47:02.135Z,18.03
2022-10-23T06:50:25.372Z,17.83
2022-10-23T06:53:29.836Z,16.20
2022-10-23T06:56:42.637Z,11.10
2022-10-23T06:59:48.902Z,19.80
2022-10-23T07:02:54.336Z,23.17
2022-10-23T07:06:02.383Z,48.10
2022-10-23T07:09:06.536Z,31.23
2022-10-23T07:12:29.906Z,19.47
2022-10-23T07:15:53.725Z,39.45
2022-10-23T07:19:02.133Z,31.25
2022-10-23T07:22:05.906Z,34.17
2022-10-23T07:25:27.703Z,34.75
2022-10-23T07:28:31.567Z,36.28
2022-10-23T07:31:36.794Z,26.75
2022-10-23T07:38:33.794Z,15.10
2022-10-23T07:41:38.823Z,16.35
2022-10-23T07:44:42.546Z,19.02
2022-10-23T07:47:52.197Z,19.63
2022-10-23T07:51:01.078Z,19.27
2022-10-23T07:54:05.230Z,20.85
2022-10-23T07:57:28.863Z,19.15
2022-10-23T08:00:43.324Z,18.15
2022-10-23T08:04:03.182Z,16.33
2022-10-23T08:07:07.718Z,16.77
2022-10-23T08:10:16.936Z,11.82
2022-10-23T08:13:22.533Z,14.52
2022-10-23T08:16:35.897Z,18.70
2022-10-23T08:19:41.167Z,28.23
2022-10-23T08:22:44.918Z,21.90
2022-10-23T08:25:58.790Z,16.95
2022-10-23T08:29:03.224Z,18.92
2022-10-23T08:32:07.454Z,17.55
2022-10-23T08:35:29.445Z,10.45
2022-10-23T08:38:35.836Z,15.70
2022-10-23T08:41:44.144Z,17.38
2022-10-23T08:45:00.525Z,18.88
2022-10-23T08:48:14.962Z,7.88
2022-10-23T08:51:44.026Z,13.60
2022-10-23T08:54:58.915Z,16.73
2022-10-23T08:58:06.916Z,9.30
2022-10-23T09:01:28.712Z,9.10
2022-10-23T09:04:33.385Z,12.30
2022-10-23T09:07:44.716Z,17.40
2022-10-23T09:11:02.751Z,12.23
2022-10-23T09:14:30.485Z,14.75
2022-10-23T09:17:38.158Z,12.85
2022-10-23T09:20:45.583Z,8.35
2022-10-23T09:23:50.676Z,8.07
2022-10-23T09:26:55.749Z,8.57
2022-10-23T09:29:59.582Z,11.43
2022-10-23T09:33:15.442Z,7.75
2022-10-23T09:36:23.732Z,8.38
2022-10-23T09:39:32.341Z,9.25
2022-10-23T09:42:36.068Z,6.50
2022-10-23T09:45:42.672Z,10.88
2022-10-23T09:49:00.943Z,7.45
2022-10-23T09:52:24.563Z,13.32
2022-10-23T09:55:30.687Z,10.20
2022-10-23T09:58:37.787Z,10.10
2022-10-23T10:01:49.194Z,10.07
2022-10-23T10:05:25.685Z,7.05
2022-10-23T10:08:41.235Z,13.32
2022-10-23T10:11:51.563Z,12.43
2022-10-23T10:15:09.804Z,13.80
2022-10-23T10:18:20.046Z,5.90
2022-10-23T10:21:29.695Z,6.68
2022-10-23T10:24:40.544Z,5.05
2022-10-23T10:27:58.518Z,5.95
2022-10-23T10:31:12.416Z,10.27
2022-10-23T10:34:22.652Z,9.50
2022-10-23T10:37:35.055Z,5.00
2022-10-23T10:40:44.666Z,5.43
2022-10-23T10:44:02.725Z,4.88
2022-10-23T10:47:18.609Z,8.90
2022-10-23T10:50:32.982Z,5.15
2022-10-23T10:54:17.562Z,5.45
2022-10-23T10:57:31.375Z,6.68
2022-10-23T11:00:36.865Z,5.82
2022-10-23T11:03:45.942Z,5.85
2022-10-23T11:06:54.105Z,3.70
2022-10-23T11:10:01.105Z,8.98
2022-10-23T11:13:05.935Z,6.30
2022-10-23T11:16:15.215Z,3.72
2022-10-23T11:19:24.196Z,4.00
2022-10-23T11:22:33.758Z,6.57
2022-10-23T11:26:03.382Z,4.85
2022-10-23T11:29:30.746Z,5.38
2022-10-23T11:32:51.922Z,4.22
2022-10-23T11:36:15.766Z,7.25
2022-10-23T11:39:23.285Z,7.70
2022-10-23T11:42:34.141Z,7.82
2022-10-23T11:45:39.694Z,7.93
2022-10-23T11:48:47.745Z,4.20
2022-10-23T11:52:02.276Z,5.82
2022-10-23T11:55:18.442Z,5.82
2022-10-23T11:58:32.361Z,5.47
2022-10-23T12:01:42.981Z,3.13
2022-10-23T12:04:52.258Z,5.40
2022-10-23T12:07:58.013Z,7.93
2022-10-23T12:11:02.226Z,6.57
2022-10-23T12:14:06.000Z,8.30
2022-10-23T12:17:31.681Z,4.88
2022-10-23T12:20:46.778Z,5.50
2022-10-23T12:24:24.045Z,5.28
2022-10-23T12:27:35.636Z,7.18
2022-10-23T12:30:47.355Z,4.75
2022-10-23T12:34:01.856Z,6.05
2022-10-23T12:37:28.376Z,3.45
2022-10-23T12:40:32.346Z,5.30
2022-10-23T12:43:39.227Z,4.45
2022-10-23T12:46:47.765Z,5.70
2022-10-23T12:49:52.664Z,5.93
2022-10-23T12:52:59.402Z,5.30
2022-10-23T12:56:06.392Z,2.47
2022-10-23T12:59:17.403Z,3.63
2022-10-23T13:02:26.755Z,2.90
2022-10-23T13:05:31.815Z,5.53
2022-10-23T13:08:43.202Z,4.20
2022-10-23T13:12:09.535Z,3.60
2022-10-23T13:15:18.562Z,5.72
2022-10-23T13:18:22.247Z,3.78
2022-10-23T13:21:28.777Z,3.72
2022-10-23T13:24:34.082Z,4.30
2022-10-23T13:27:39.373Z,3.20
2022-10-23T13:30:46.418Z,5.57
2022-10-23T13:33:52.846Z,3.08
2022-10-23T13:37:05.695Z,6.78
2022-10-23T13:40:25.083Z,5.65
2022-10-23T13:43:30.977Z,3.60
2022-10-23T13:46:34.797Z,5.72
2022-10-23T13:49:41.206Z,5.25
2022-10-23T13:52:45.195Z,3.50
2022-10-23T13:55:56.370Z,3.65
2022-10-23T13:59:02.475Z,2.03
2022-10-23T14:02:19.642Z,5.72
2022-10-23T14:05:23.472Z,3.63
2022-10-23T14:08:27.246Z,4.00
2022-10-23T14:11:32.772Z,5.32
2022-10-23T14:14:36.566Z,4.70
2022-10-23T14:17:40.446Z,4.03
2022-10-23T14:20:44.142Z,4.70
2022-10-23T14:23:48.436Z,4.97
2022-10-23T14:26:53.675Z,7.57
2022-10-23T14:29:57.503Z,8.55
2022-10-23T14:33:01.215Z,4.18
2022-10-23T14:36:06.138Z,5.40
2022-10-23T14:39:09.896Z,3.53
2022-10-23T14:42:15.616Z,7.90
2022-10-23T14:45:19.352Z,2.80
2022-10-23T14:48:23.168Z,3.58
2022-10-23T14:51:28.923Z,5.18
2022-10-23T14:54:34.669Z,4.82
2022-10-23T14:57:39.897Z,9.65
2022-10-23T15:00:43.615Z,7.85
2022-10-23T15:03:47.422Z,5.38
2022-10-23T15:06:51.166Z,5.97
2022-10-23T15:09:55.722Z,8.20
2022-10-23T15:13:00.786Z,5.60
2022-10-23T15:16:06.385Z,4.57
2022-10-23T15:19:13.684Z,8.80
2022-10-23T15:22:21.169Z,5.97
2022-10-23T15:25:24.987Z,11.75
2022-10-23T15:28:31.172Z,9.27
2022-10-23T15:31:54.913Z,3.28
2022-10-23T15:35:00.320Z,5.70
2022-10-23T15:38:04.034Z,5.90
2022-10-23T15:41:16.755Z,4.60
2022-10-23T15:44:24.413Z,6.35
2022-10-23T15:47:28.063Z,6.80
2022-10-23T15:50:31.784Z,5.65
2022-10-23T15:53:35.467Z,7.85
2022-10-23T15:56:39.123Z,7.25
2022-10-23T15:59:44.356Z,6.25
2022-10-23T16:02:48.178Z,4.47
2022-10-23T16:05:52.206Z,6.22
2022-10-23T16:08:55.846Z,6.85
2022-10-23T16:11:59.522Z,8.27
2022-10-23T16:15:05.027Z,5.65
2022-10-23T16:18:09.126Z,6.53
2022-10-23T16:21:19.382Z,7.72
2022-10-23T16:24:22.748Z,12.60
2022-10-23T16:27:26.562Z,4.53
2022-10-23T16:30:31.902Z,4.40
2022-10-23T16:33:38.755Z,7.40
2022-10-23T16:36:42.577Z,6.57
2022-10-23T16:39:46.792Z,8.13
2022-10-23T16:43:09.006Z,5.80
2022-10-23T16:46:19.703Z,7.13
2022-10-23T16:49:23.422Z,4.97
2022-10-23T16:52:27.902Z,9.23
2022-10-23T16:55:31.637Z,5.13
2022-10-23T16:58:36.266Z,9.25
2022-10-23T17:01:41.881Z,3.85
2022-10-23T17:04:48.265Z,6.38
2022-10-23T17:07:51.956Z,9.77
2022-10-23T17:11:06.042Z,7.75
2022-10-23T17:14:13.685Z,7.43
2022-10-23T17:17:18.846Z,7.43
2022-10-23T17:20:22.795Z,4.95
2022-10-23T17:23:26.543Z,7.18
2022-10-23T17:26:31.026Z,6.07
2022-10-23T17:29:34.748Z,5.93
2022-10-23T17:32:39.883Z,5.78
2022-10-23T17:35:45.447Z,9.45
2022-10-23T17:38:49.728Z,18.73
2022-10-23T17:41:53.597Z,7.93
2022-10-23T17:44:57.410Z,4.45
2022-10-23T17:48:02.402Z,7.10
2022-10-23T17:51:08.563Z,4.85
2022-10-23T17:54:13.252Z,29.20
2022-10-23T17:57:16.917Z,16.25
2022-10-23T18:00:20.702Z,6.78
2022-10-23T18:03:25.776Z,8.35
2022-10-23T18:06:32.396Z,7.47
2022-10-23T18:09:36.057Z,9.20
2022-10-23T18:12:39.702Z,7.50
2022-10-23T18:15:43.407Z,8.05
2022-10-23T18:18:49.555Z,7.83
2022-10-23T18:21:53.303Z,6.85
2022-10-23T18:24:57.135Z,7.47
2022-10-23T18:28:02.478Z,8.30
2022-10-23T18:31:09.686Z,8.60
2022-10-23T18:34:20.772Z,9.90
2022-10-23T18:37:26.791Z,6.43
2022-10-23T18:40:32.976Z,5.50
2022-10-23T18:43:43.829Z,10.35
2022-10-23T18:46:49.256Z,10.73
2022-10-23T18:49:54.482Z,12.85
2022-10-23T18:52:58.242Z,8.00
2022-10-23T18:56:02.115Z,8.07
2022-10-23T18:59:07.403Z,5.03
2022-10-23T19:02:12.301Z,6.27
2022-10-23T19:05:17.603Z,6.57
2022-10-23T19:08:22.012Z,9.50
2022-10-23T19:11:27.586Z,9.37
2022-10-23T19:14:31.296Z,10.23
2022-10-23T19:17:34.987Z,6.93
2022-10-23T19:20:40.243Z,10.70
2022-10-23T19:23:44.816Z,7.90
2022-10-23T19:26:49.436Z,10.40
2022-10-23T19:29:55.187Z,11.27
2022-10-23T19:32:58.924Z,29.93
2022-10-23T19:36:05.351Z,13.87
2022-10-23T19:39:09.775Z,9.83
2022-10-23T19:42:13.902Z,10.03
2022-10-23T19:45:17.867Z,12.33
2022-10-23T19:48:21.555Z,14.00
2022-10-23T19:51:26.685Z,11.77
2022-10-23T19:54:30.403Z,11.67
2022-10-23T19:57:35.234Z,13.40
2022-10-23T20:00:38.958Z,10.10
2022-10-23T20:03:45.585Z,9.53
2022-10-23T20:06:50.755Z,11.60
2022-10-23T20:09:55.046Z,10.10
2022-10-23T20:13:18.324Z,10.97
2022-10-23T20:16:25.067Z,13.70
2022-10-23T20:19:28.906Z,15.47
2022-10-23T20:22:34.125Z,13.90
2022-10-23T20:25:38.047Z,13.97
2022-10-23T20:28:41.788Z,14.37
2022-10-23T20:31:45.926Z,12.57
2022-10-23T20:34:49.621Z,13.30
2022-10-23T20:37:54.891Z,18.93
2022-10-23T20:41:00.626Z,25.67
2022-10-23T20:44:05.488Z,10.73
2022-10-23T20:47:09.216Z,14.23
2022-10-23T20:50:12.882Z,18.10
2022-10-23T20:53:18.104Z,12.40
2022-10-23T20:56:30.130Z,12.17
2022-10-23T20:59:34.251Z,10.27
2022-10-23T21:02:37.922Z,10.53
2022-10-23T21:05:41.676Z,8.10
2022-10-23T21:08:47.173Z,11.67
2022-10-23T21:11:51.237Z,12.17
2022-10-23T21:14:54.966Z,10.70
2022-10-23T21:18:04.967Z,11.63
2022-10-23T21:21:20.523Z,11.03
2022-10-23T21:24:25.645Z,12.73
2022-10-23T21:27:29.322Z,10.70
2022-10-23T21:30:33.982Z,8.53
2022-10-23T21:33:38.794Z,10.20
2022-10-23T21:37:07.517Z,7.70
2022-10-23T21:40:12.796Z,8.10
2022-10-23T21:43:16.422Z,11.33
2022-10-23T21:46:20.279Z,10.00
2022-10-23T21:49:23.923Z,12.13
2022-10-23T21:52:28.026Z,8.57
2022-10-23T21:55:33.260Z,7.87
2022-10-23T21:58:37.742Z,8.03
2022-10-23T22:01:43.310Z,12.60
2022-10-23T22:04:47.155Z,9.67
2022-10-23T22:07:50.867Z,5.67
2022-10-23T22:10:56.242Z,7.00
2022-10-23T22:14:00.897Z,7.50
2022-10-23T22:17:05.198Z,6.90
2022-10-23T22:20:10.326Z,8.73
2022-10-23T22:23:14.002Z,7.50
2022-10-23T22:26:25.177Z,8.40
2022-10-23T22:29:30.683Z,9.73
2022-10-23T22:32:36.663Z,8.93
2022-10-23T22:35:40.386Z,8.37
2022-10-23T22:38:44.652Z,12.30
2022-10-23T22:41:49.887Z,8.33
2022-10-23T22:44:56.373Z,11.97
2022-10-23T22:47:59.958Z,10.20
2022-10-23T22:51:06.294Z,9.40
2022-10-23T22:54:12.100Z,11.07
2022-10-23T22:57:19.509Z,9.03
2022-10-23T23:00:23.336Z,13.10
2022-10-23T23:03:29.138Z,11.70
2022-10-23T23:06:35.041Z,11.33
2022-10-23T23:09:40.435Z,10.87
2022-10-23T23:12:45.546Z,12.13
2022-10-23T23:15:49.487Z,14.03
2022-10-23T23:18:53.526Z,9.13
2022-10-23T23:21:57.763Z,9.83
2022-10-23T23:25:01.435Z,9.83
2022-10-23T23:28:08.676Z,9.80
2022-10-23T23:31:18.137Z,11.13
2022-10-23T23:34:22.316Z,8.87
2022-10-23T23:37:26.061Z,8.83
2022-10-23T23:40:29.866Z,6.97
2022-10-23T23:43:35.300Z,9.17
2022-10-23T23:46:38.963Z,8.47
2022-10-23T23:49:42.476Z,9.37
2022-10-23T23:52:46.126Z,10.83
2022-10-23T23:55:49.890Z,7.40
2022-10-23T23:58:55.050Z,6.13
